Time;durP1;ratioP1;P1;durP2;ratioP2;P2;SDS_P1;SDS_P2;PMS_P1;PMS_P2;Temp;Humidity;BMP_temperature;BMP_pressure;BME280_temperature;BME280_humidity;BME280_pressure;Samples;Min_cycle;Max_cycle;Signal;HPM_P1;HPM_P2
2024/03/11 00:00:26;;;;;;;;;;;;;;;0.77;100.00;100780.71;109484;1251;74727;-54
2024/03/11 00:02:54;;;;;;;;;;;;;;;0.74;100.00;100781.77;109471;1250;66890;-54
2024/03/11 00:05:21;;;;;;;;;;;;;;;0.72;100.00;100784.97;109476;1251;72739;-54
2024/03/11 00:07:49;;;;;;;;;;;;;;;0.70;100.00;100785.06;109539;1251;59064;-54
2024/03/11 00:10:18;;;;;;;;;;;;;;;0.72;100.00;100786.48;109494;1250;59651;-57
2024/03/11 00:12:51;;;;;;;;;;;;;;;0.72;100.00;100791.83;109522;1251;74825;-54
2024/03/11 00:15:23;;;;;;;;;;;;;;;0.71;100.00;100790.99;109529;1251;65624;-54
2024/03/11 00:17:51;;;;;;;;;;;;;;;0.69;100.00;100794.43;109555;1251;72737;-54
2024/03/11 00:20:22;;;;;;;;;;;;;;;0.66;100.00;100799.39;109453;1251;59370;-56
2024/03/11 00:22:49;;;;;;;;;;;;;;;0.66;100.00;100802.98;109474;1251;60073;-55
2024/03/11 00:25:17;;;;;;;;;;;;;;;0.63;100.00;100797.59;109530;1251;75106;-54
2024/03/11 00:27:45;;;;;;;;;;;;;;;0.61;100.00;100799.11;109559;1250;65655;-54
2024/03/11 00:30:13;;;;;;;;;;;;;;;0.60;100.00;100799.86;109489;1251;72720;-54
2024/03/11 00:32:47;;;;;;;;;;;;;;;0.59;100.00;100800.61;109543;1250;59445;-55
2024/03/11 00:35:16;;;;;;;;;;;;;;;0.55;100.00;100803.93;109564;1250;59842;-54
2024/03/11 00:37:45;;;;;;;;;;;;;;;0.54;100.00;100810.39;109518;1250;74692;-54
2024/03/11 00:40:13;;;;;;;;;;;;;;;0.51;100.00;100812.63;109442;1251;65614;-55
2024/03/11 00:42:41;;;;;;;;;;;;;;;0.48;100.00;100820.50;109448;1251;73206;-54
2024/03/11 00:45:12;;;;;;;;;;;;;;;0.46;100.00;100823.38;109456;1251;59006;-55
2024/03/11 00:47:39;;;;;;;;;;;;;;;0.41;100.00;100825.05;109375;1251;59536;-54
2024/03/11 00:50:09;;;;;;;;;;;;;;;0.38;100.00;100826.65;109487;1251;73408;-54
2024/03/11 00:52:44;;;;;;;;;;;;;;;0.36;100.00;100827.45;109430;1251;66624;-54
2024/03/11 00:55:12;;;;;;;;;;;;;;;0.35;100.00;100830.41;109455;1251;73015;-55
2024/03/11 00:57:41;;;;;;;;;;;;;;;0.33;100.00;100838.90;109431;1251;58988;-54
2024/03/11 01:00:11;;;;;;;;;;;;;;;0.32;100.00;100845.18;109470;1251;59915;-58
2024/03/11 01:02:40;;;;;;;;;;;;;;;0.30;100.00;100845.32;109492;1251;74013;-55
2024/03/11 01:05:10;;;;;;;;;;;;;;;0.29;100.00;100849.44;109454;1251;65664;-55
2024/03/11 01:07:38;;;;;;;;;;;;;;;0.26;100.00;100853.95;109521;1251;72631;-54
2024/03/11 01:10:13;;;;;;;;;;;;;;;0.20;100.00;100855.84;109391;1253;59265;-54
2024/03/11 01:12:41;;;;;;;;;;;;;;;0.10;100.00;100865.08;109446;1251;60410;-54
2024/03/11 01:15:10;;;;;;;;;;;;;;;-0.04;100.00;100869.09;109440;1251;74551;-54
2024/03/11 01:17:38;;;;;;;;;;;;;;;-0.15;100.00;100876.28;109501;1251;67207;-54
2024/03/11 01:20:09;;;;;;;;;;;;;;;-0.22;100.00;100878.48;109436;1251;72707;-54
2024/03/11 01:22:39;;;;;;;;;;;;;;;-0.29;100.00;100878.49;109479;1253;59116;-55
2024/03/11 01:25:08;;;;;;;;;;;;;;;-0.35;100.00;100879.75;109516;1251;60018;-54
2024/03/11 01:27:37;;;;;;;;;;;;;;;-0.38;100.00;100883.19;109444;1251;73413;-54
2024/03/11 01:30:05;;;;;;;;;;;;;;;-0.42;100.00;100885.02;109468;1251;65630;-55
2024/03/11 01:32:32;;;;;;;;;;;;;;;-0.49;100.00;100892.23;109520;1251;71443;-54
2024/03/11 01:35:03;;;;;;;;;;;;;;;-0.54;100.00;100891.91;109466;1251;61112;-55
2024/03/11 01:37:31;;;;;;;;;;;;;;;-0.60;100.00;100895.16;109379;1250;59890;-55
2024/03/11 01:39:58;;;;;;;;;;;;;;;-0.61;100.00;100901.90;109535;1250;74673;-55
2024/03/11 01:42:26;;;;;;;;;;;;;;;-0.63;100.00;100905.79;109545;1251;66944;-56
2024/03/11 01:44:53;;;;;;;;;;;;;;;-0.64;100.00;100908.44;109534;1251;72748;-55
2024/03/11 01:47:21;;;;;;;;;;;;;;;-0.69;100.00;100915.05;109483;1251;59550;-56
2024/03/11 01:49:52;;;;;;;;;;;;;;;-0.78;100.00;100921.67;109483;1251;59444;-56
2024/03/11 01:52:24;;;;;;;;;;;;;;;-0.80;100.00;100933.47;109390;1250;207429;-55
2024/03/11 01:54:51;;;;;;;;;;;;;;;-0.80;100.00;100942.49;109493;1251;66933;-56
2024/03/11 01:57:19;;;;;;;;;;;;;;;-0.81;100.00;100945.60;109530;1251;72656;-55
2024/03/11 01:59:47;;;;;;;;;;;;;;;-0.87;100.00;100951.97;109452;1251;60959;-56
2024/03/11 02:02:14;;;;;;;;;;;;;;;-0.94;100.00;100955.80;109577;1250;59861;-56
2024/03/11 02:04:45;;;;;;;;;;;;;;;-1.00;100.00;100960.94;109470;1250;73409;-57
2024/03/11 02:07:15;;;;;;;;;;;;;;;-1.06;100.00;100965.05;109518;1251;67016;-56
2024/03/11 02:09:43;;;;;;;;;;;;;;;-1.16;100.00;100969.70;109486;1251;71118;-56
2024/03/11 02:12:11;;;;;;;;;;;;;;;-1.24;100.00;100976.14;109511;1251;60918;-56
2024/03/11 02:14:40;;;;;;;;;;;;;;;-1.29;100.00;100978.30;109517;1251;59842;-55
2024/03/11 02:17:08;;;;;;;;;;;;;;;-1.32;100.00;100983.10;109525;1251;73419;-56
2024/03/11 02:19:37;;;;;;;;;;;;;;;-1.31;100.00;100986.80;109466;1251;65615;-55
2024/03/11 02:22:05;;;;;;;;;;;;;;;-1.31;100.00;100989.04;109495;1251;71096;-56
2024/03/11 02:24:32;;;;;;;;;;;;;;;-1.34;100.00;100992.40;109419;1251;60131;-56
2024/03/11 02:27:00;;;;;;;;;;;;;;;-1.39;100.00;100999.34;109424;1251;59650;-55
2024/03/11 02:29:28;;;;;;;;;;;;;;;-1.42;100.00;101001.91;109443;1251;75328;-56
2024/03/11 02:31:55;;;;;;;;;;;;;;;-1.48;100.00;101007.33;109524;1251;67072;-56
2024/03/11 02:34:23;;;;;;;;;;;;;;;-1.52;100.00;101015.91;109519;1253;72163;-55
2024/03/11 02:36:55;;;;;;;;;;;;;;;-1.52;100.00;101019.17;109527;1251;59800;-55
2024/03/11 02:39:27;;;;;;;;;;;;;;;-1.52;100.00;101024.46;109503;1251;59870;-56
2024/03/11 02:41:55;;;;;;;;;;;;;;;-1.55;100.00;101034.36;109539;1252;74653;-56
2024/03/11 02:44:22;;;;;;;;;;;;;;;-1.56;100.00;101037.84;109594;1251;66197;-56
2024/03/11 02:46:51;;;;;;;;;;;;;;;-1.58;100.00;101041.16;109526;1250;72635;-55
2024/03/11 02:49:18;;;;;;;;;;;;;;;-1.60;100.00;101049.84;109449;1251;59638;-60
2024/03/11 02:51:46;;;;;;;;;;;;;;;-1.65;100.00;101054.35;109535;1250;59754;-56
2024/03/11 02:54:15;;;;;;;;;;;;;;;-1.66;100.00;101059.70;109571;1251;74710;-55
2024/03/11 02:56:43;;;;;;;;;;;;;;;-1.70;100.00;101059.20;109633;1251;67003;-55
2024/03/11 02:59:10;;;;;;;;;;;;;;;-1.72;100.00;101060.52;109443;1251;71437;-59
2024/03/11 03:01:38;;;;;;;;;;;;;;;-1.75;100.00;101067.13;109444;1254;61053;-55
2024/03/11 03:04:06;;;;;;;;;;;;;;;-1.76;100.00;101075.02;109523;1251;59165;-56
2024/03/11 03:06:33;;;;;;;;;;;;;;;-1.77;100.00;101076.48;109573;1251;74785;-57
2024/03/11 03:09:01;;;;;;;;;;;;;;;-1.82;100.00;101078.63;109493;1255;66866;-56
2024/03/11 03:11:28;;;;;;;;;;;;;;;-1.88;100.00;101082.51;109498;1251;73623;-56
2024/03/11 03:13:56;;;;;;;;;;;;;;;-1.91;100.00;101084.90;109434;1251;59674;-55
2024/03/11 03:16:24;;;;;;;;;;;;;;;-1.93;100.00;101088.06;109468;1251;59021;-56
2024/03/11 03:18:51;;;;;;;;;;;;;;;-1.95;100.00;101094.14;109557;1250;73429;-56
2024/03/11 03:21:18;;;;;;;;;;;;;;;-2.01;100.00;101096.48;109502;1250;67006;-58
2024/03/11 03:23:46;;;;;;;;;;;;;;;-2.06;100.00;101098.95;109553;1251;71283;-55
2024/03/11 03:26:14;;;;;;;;;;;;;;;-2.08;100.00;101099.27;109470;1251;60792;-56
2024/03/11 03:28:42;;;;;;;;;;;;;;;-2.09;100.00;101098.84;109564;1251;58950;-56
2024/03/11 03:31:09;;;;;;;;;;;;;;;-2.12;100.00;101096.77;109504;1251;74756;-57
2024/03/11 03:33:37;;;;;;;;;;;;;;;-2.17;100.00;101101.96;109489;1251;65876;-55
2024/03/11 03:36:04;;;;;;;;;;;;;;;-2.26;100.00;101099.36;109472;1251;72791;-55
2024/03/11 03:38:32;;;;;;;;;;;;;;;-2.36;100.00;101101.39;109465;1251;61756;-55
2024/03/11 03:40:59;;;;;;;;;;;;;;;-2.45;100.00;101100.70;109559;1251;59311;-56
2024/03/11 03:43:27;;;;;;;;;;;;;;;-2.54;100.00;101099.09;109457;1251;73412;-55
2024/03/11 03:45:54;;;;;;;;;;;;;;;-2.63;100.00;101103.32;109520;1251;66075;-56
2024/03/11 03:48:22;;;;;;;;;;;;;;;-2.69;100.00;101105.48;109487;1251;72057;-56
2024/03/11 03:50:50;;;;;;;;;;;;;;;-2.75;100.00;101108.99;109506;1251;61748;-55
2024/03/11 03:53:20;;;;;;;;;;;;;;;-2.81;100.00;101111.33;109518;1251;58871;-61
2024/03/11 03:55:49;;;;;;;;;;;;;;;-2.88;100.00;101113.55;109469;1250;75094;-56
2024/03/11 03:58:19;;;;;;;;;;;;;;;-2.96;100.00;101110.23;109543;1251;67090;-56
2024/03/11 04:00:46;;;;;;;;;;;;;;;-3.05;100.00;101112.84;109493;1251;71268;-56
2024/03/11 04:03:14;;;;;;;;;;;;;;;-3.12;100.00;101113.23;109448;1251;61732;-56
2024/03/11 04:05:41;;;;;;;;;;;;;;;-3.20;100.00;101120.23;109499;1251;59897;-55
2024/03/11 04:08:09;;;;;;;;;;;;;;;-3.26;100.00;101121.54;109515;1251;74738;-55
2024/03/11 04:10:36;;;;;;;;;;;;;;;-3.32;100.00;101130.45;109549;1250;66178;-56
2024/03/11 04:13:06;;;;;;;;;;;;;;;-3.32;100.00;101135.58;109532;1251;72744;-58
2024/03/11 04:15:34;;;;;;;;;;;;;;;-3.16;100.00;101143.33;109469;1251;61230;-57
2024/03/11 04:18:05;;;;;;;;;;;;;;;-2.91;100.00;101146.70;109445;1251;59817;-57
2024/03/11 04:20:33;;;;;;;;;;;;;;;-2.64;100.00;101153.37;109489;1251;73433;-56
2024/03/11 04:23:02;;;;;;;;;;;;;;;-2.55;100.00;101156.66;109505;1251;65733;-60
2024/03/11 04:25:31;;;;;;;;;;;;;;;-2.54;100.00;101162.37;109519;1251;71847;-55
2024/03/11 04:27:59;;;;;;;;;;;;;;;-2.21;100.00;101164.27;109454;1250;58926;-55
2024/03/11 04:30:31;;;;;;;;;;;;;;;-1.71;100.00;101171.08;109586;1251;58938;-55
2024/03/11 04:32:58;;;;;;;;;;;;;;;-1.17;100.00;101171.85;109536;1251;74695;-60
2024/03/11 04:35:30;;;;;;;;;;;;;;;-0.63;100.00;101177.34;109590;1251;67018;-56
2024/03/11 04:37:59;;;;;;;;;;;;;;;-0.15;100.00;101175.08;109499;1251;72732;-56
2024/03/11 04:40:28;;;;;;;;;;;;;;;0.16;100.00;101174.71;109510;1251;59464;-55
2024/03/11 04:42:55;;;;;;;;;;;;;;;0.49;100.00;101174.91;109507;1251;58971;-57
2024/03/11 04:45:24;;;;;;;;;;;;;;;0.83;100.00;101172.24;109480;1251;75526;-55
2024/03/11 04:47:54;;;;;;;;;;;;;;;1.08;100.00;101176.66;109547;1251;65743;-55
2024/03/11 04:50:24;;;;;;;;;;;;;;;1.13;100.00;101182.29;109528;1250;71423;-56
2024/03/11 04:52:55;;;;;;;;;;;;;;;1.23;100.00;101184.92;109529;1251;58940;-60
2024/03/11 04:55:22;;;;;;;;;;;;;;;1.41;100.00;101189.77;109517;1251;58970;-55
2024/03/11 04:57:51;;;;;;;;;;;;;;;1.52;100.00;101187.67;109528;1253;74739;-56
2024/03/11 05:00:19;;;;;;;;;;;;;;;1.51;100.00;101188.71;109522;1251;66962;-56
2024/03/11 05:02:46;;;;;;;;;;;;;;;1.40;100.00;101195.10;109460;1254;72759;-56
2024/03/11 05:05:14;;;;;;;;;;;;;;;1.05;100.00;101197.91;109468;1251;59471;-60
2024/03/11 05:07:41;;;;;;;;;;;;;;;0.63;100.00;101205.34;109476;1251;58894;-56
2024/03/11 05:10:09;;;;;;;;;;;;;;;0.22;100.00;101216.23;109502;1253;74647;-55
2024/03/11 05:12:36;;;;;;;;;;;;;;;-0.13;100.00;101224.33;109516;1253;66244;-55
2024/03/11 05:15:05;;;;;;;;;;;;;;;-0.48;100.00;101239.82;109400;1253;71399;-55
2024/03/11 05:17:32;;;;;;;;;;;;;;;-0.67;100.00;101246.73;109511;1252;59248;-54
2024/03/11 05:20:05;;;;;;;;;;;;;;;-0.75;100.00;101252.97;109474;1252;59912;-55
2024/03/11 05:22:33;;;;;;;;;;;;;;;-0.80;100.00;101267.20;109528;1251;74690;-55
2024/03/11 05:25:01;;;;;;;;;;;;;;;-0.84;100.00;101276.32;109445;1254;66849;-60
2024/03/11 05:27:28;;;;;;;;;;;;;;;-0.88;100.00;101287.65;109470;1251;72735;-56
2024/03/11 05:29:56;;;;;;;;;;;;;;;-0.82;100.00;101295.14;109491;1252;60111;-56
2024/03/11 05:32:23;;;;;;;;;;;;;;;-0.67;100.00;101302.04;109461;1252;60286;-55
2024/03/11 05:34:51;;;;;;;;;;;;;;;-0.51;100.00;101300.28;109427;1255;74749;-59
2024/03/11 05:37:20;;;;;;;;;;;;;;;-0.37;100.00;101300.53;109533;1251;68189;-54
2024/03/11 05:39:48;;;;;;;;;;;;;;;-0.24;100.00;101305.59;109477;1251;72704;-56
2024/03/11 05:42:17;;;;;;;;;;;;;;;-0.19;100.00;101313.70;109302;1251;58954;-55
2024/03/11 05:44:45;;;;;;;;;;;;;;;-0.19;100.00;101318.45;109452;1251;58898;-57
2024/03/11 05:47:13;;;;;;;;;;;;;;;-0.12;100.00;101325.23;109546;1251;75189;-55
2024/03/11 05:49:41;;;;;;;;;;;;;;;-0.02;100.00;101330.80;109472;1252;66932;-55
2024/03/11 05:52:09;;;;;;;;;;;;;;;0.12;100.00;101338.51;109521;1251;71550;-55
2024/03/11 05:54:38;;;;;;;;;;;;;;;0.27;100.00;101338.85;109474;1251;60142;-59
2024/03/11 05:57:05;;;;;;;;;;;;;;;0.34;100.00;101346.32;109529;1251;59228;-55
2024/03/11 05:59:33;;;;;;;;;;;;;;;0.44;100.00;101354.80;109518;1251;73448;-55
2024/03/11 06:02:01;;;;;;;;;;;;;;;0.59;100.00;101353.23;109547;1251;66908;-55
2024/03/11 06:04:28;;;;;;;;;;;;;;;0.78;100.00;101357.05;109522;1251;73734;-56
2024/03/11 06:06:56;;;;;;;;;;;;;;;0.98;100.00;101363.52;109418;1251;59358;-56
2024/03/11 06:09:23;;;;;;;;;;;;;;;1.23;100.00;101363.67;109466;1251;59218;-56
2024/03/11 06:11:53;;;;;;;;;;;;;;;1.32;100.00;101366.88;109578;1251;74607;-56
2024/03/11 06:14:21;;;;;;;;;;;;;;;1.51;100.00;101373.54;109514;1251;68541;-56
2024/03/11 06:16:49;;;;;;;;;;;;;;;2.07;100.00;101372.86;109470;1251;71362;-56
2024/03/11 06:19:17;;;;;;;;;;;;;;;2.75;100.00;101378.25;109448;1251;60111;-56
2024/03/11 06:21:45;;;;;;;;;;;;;;;3.47;95.11;101378.75;109465;1251;58969;-56
2024/03/11 06:24:12;;;;;;;;;;;;;;;4.03;83.50;101382.09;109516;1252;74729;-55
2024/03/11 06:26:40;;;;;;;;;;;;;;;4.39;70.28;101380.96;109419;1251;65571;-57
2024/03/11 06:29:08;;;;;;;;;;;;;;;4.37;62.52;101387.30;109506;1251;72805;-56
2024/03/11 06:31:37;;;;;;;;;;;;;;;4.12;61.41;101389.84;109489;1251;60178;-56
2024/03/11 06:34:06;;;;;;;;;;;;;;;4.36;63.86;101395.84;109482;1253;59991;-56
2024/03/11 06:36:34;;;;;;;;;;;;;;;4.69;59.79;101399.16;109519;1254;74726;-55
2024/03/11 06:39:02;;;;;;;;;;;;;;;4.81;58.76;101399.61;109501;1251;67463;-56
2024/03/11 06:41:29;;;;;;;;;;;;;;;5.17;60.35;101399.23;109457;1252;71126;-55
2024/03/11 06:44:01;;;;;;;;;;;;;;;5.68;58.23;101400.94;109500;1253;58995;-56
2024/03/11 06:46:28;;;;;;;;;;;;;;;5.88;54.29;101398.73;109517;1251;58916;-56
2024/03/11 06:48:56;;;;;;;;;;;;;;;5.93;53.38;101401.97;109423;1251;73444;-55
2024/03/11 06:51:23;;;;;;;;;;;;;;;6.17;53.57;101398.83;109502;1251;65803;-55
2024/03/11 06:53:51;;;;;;;;;;;;;;;6.46;51.52;101401.27;109487;1254;74739;-55
2024/03/11 06:56:19;;;;;;;;;;;;;;;6.52;49.49;101404.56;109457;1251;58988;-59
2024/03/11 06:58:46;;;;;;;;;;;;;;;6.55;49.12;101408.29;109463;1254;62398;-55
2024/03/11 07:01:14;;;;;;;;;;;;;;;6.78;48.94;101410.88;109492;1252;74865;-55
2024/03/11 07:03:42;;;;;;;;;;;;;;;6.92;47.56;101418.13;109480;1251;70432;-54
2024/03/11 07:06:10;;;;;;;;;;;;;;;6.98;46.91;101420.05;109490;1251;73984;-59
2024/03/11 07:08:38;;;;;;;;;;;;;;;7.10;45.89;101417.23;109443;1250;61786;-56
2024/03/11 07:11:08;;;;;;;;;;;;;;;7.15;46.00;101416.20;109437;1251;61816;-57
2024/03/11 07:13:36;;;;;;;;;;;;;;;7.21;45.38;101421.33;109489;1251;76752;-56
2024/03/11 07:16:06;;;;;;;;;;;;;;;7.25;43.35;101423.38;109446;1251;65545;-56
2024/03/11 07:18:35;;;;;;;;;;;;;;;6.71;42.37;101424.35;109452;1251;76025;-56
2024/03/11 07:21:05;;;;;;;;;;;;;;;6.22;42.70;101428.46;109483;1251;61996;-55
2024/03/11 07:23:33;;;;;;;;;;;;;;;5.67;42.42;101431.48;109506;1253;60737;-55
2024/03/11 07:26:01;;;;;;;;;;;;;;;4.98;43.15;101435.00;109425;1251;76720;-56
2024/03/11 07:28:29;;;;;;;;;;;;;;;4.76;44.64;101438.03;109526;1251;68971;-55
2024/03/11 07:30:56;;;;;;;;;;;;;;;4.81;45.24;101437.66;109458;1251;72847;-55
2024/03/11 07:33:24;;;;;;;;;;;;;;;4.96;46.31;101448.23;109455;1251;59483;-55
2024/03/11 07:35:53;;;;;;;;;;;;;;;5.39;46.15;101441.99;109486;1251;60700;-60
2024/03/11 07:38:23;;;;;;;;;;;;;;;5.65;43.41;101444.44;109452;1250;75654;-55
2024/03/11 07:40:51;;;;;;;;;;;;;;;5.42;42.33;101446.95;109544;1251;68394;-56
2024/03/11 07:43:19;;;;;;;;;;;;;;;5.11;42.37;101451.55;109433;1251;75054;-55
2024/03/11 07:45:46;;;;;;;;;;;;;;;4.87;43.15;101456.99;109416;1251;60266;-60
2024/03/11 07:48:14;;;;;;;;;;;;;;;5.01;43.86;101459.23;109508;1251;62921;-56
2024/03/11 07:50:42;;;;;;;;;;;;;;;5.28;43.01;101450.27;109539;1251;78062;-56
2024/03/11 07:53:12;;;;;;;;;;;;;;;5.43;43.68;101453.20;109516;1251;68690;-55
2024/03/11 07:55:40;;;;;;;;;;;;;;;5.78;42.85;101450.95;109486;1251;73001;-56
2024/03/11 07:58:08;;;;;;;;;;;;;;;5.79;41.66;101464.19;109482;1251;61091;-55
2024/03/11 08:00:36;;;;;;;;;;;;;;;5.50;40.50;101456.28;109513;1251;62100;-56
2024/03/11 08:03:04;;;;;;;;;;;;;;;5.11;40.40;101452.94;109467;1251;75753;-55
2024/03/11 08:05:34;;;;;;;;;;;;;;;4.76;41.06;101456.65;109488;1251;68736;-60
2024/03/11 08:08:03;;;;;;;;;;;;;;;4.53;41.77;101461.45;109491;1251;74094;-55
2024/03/11 08:10:31;;;;;;;;;;;;;;;4.65;43.11;101461.98;109494;1251;61296;-55
2024/03/11 08:12:59;;;;;;;;;;;;;;;4.75;42.38;101460.88;109479;1250;60249;-56
2024/03/11 08:15:26;;;;;;;;;;;;;;;4.79;43.56;101470.52;109464;1250;75833;-60
2024/03/11 08:17:55;;;;;;;;;;;;;;;5.13;42.70;101479.13;109487;1251;68819;-56
2024/03/11 08:20:24;;;;;;;;;;;;;;;5.14;42.25;101478.05;109468;1251;73603;-55
2024/03/11 08:22:57;;;;;;;;;;;;;;;5.29;42.91;101468.13;109455;1251;60509;-57
2024/03/11 08:25:27;;;;;;;;;;;;;;;5.60;42.83;101461.68;109520;1251;62057;-59
2024/03/11 08:27:55;;;;;;;;;;;;;;;5.82;42.26;101465.79;109475;1255;77965;-56
2024/03/11 08:30:24;;;;;;;;;;;;;;;5.91;41.63;101458.92;109512;1251;70255;-55
2024/03/11 08:32:51;;;;;;;;;;;;;;;5.94;40.96;101463.70;109473;1254;75389;-56
2024/03/11 08:35:23;;;;;;;;;;;;;;;6.01;40.44;101457.10;109525;1251;61488;-56
2024/03/11 08:37:52;;;;;;;;;;;;;;;6.02;38.99;101454.94;109472;1251;61235;-56
2024/03/11 08:40:21;;;;;;;;;;;;;;;5.84;38.20;101456.91;109500;1251;77143;-56
2024/03/11 08:42:50;;;;;;;;;;;;;;;5.44;38.47;101454.88;109460;1250;68102;-55
2024/03/11 08:45:18;;;;;;;;;;;;;;;5.09;39.36;101466.06;109448;1251;74438;-59
2024/03/11 08:47:46;;;;;;;;;;;;;;;4.95;39.96;101478.34;109430;1251;61470;-55
2024/03/11 08:50:17;;;;;;;;;;;;;;;4.86;39.84;101476.03;109481;1250;59371;-55
2024/03/11 08:52:45;;;;;;;;;;;;;;;4.87;40.72;101478.41;109505;1251;75743;-55
2024/03/11 08:55:14;;;;;;;;;;;;;;;5.17;40.18;101478.16;109452;1251;68870;-56
2024/03/11 08:57:41;;;;;;;;;;;;;;;5.30;39.46;101487.14;109416;1256;73072;-56
2024/03/11 09:00:11;;;;;;;;;;;;;;;5.16;39.32;101490.50;109462;1253;61176;-55
2024/03/11 09:02:39;;;;;;;;;;;;;;;4.98;39.49;101497.05;109468;1251;63542;-55
2024/03/11 09:05:12;;;;;;;;;;;;;;;5.00;39.94;101500.33;109457;1251;76618;-55
2024/03/11 09:07:40;;;;;;;;;;;;;;;5.24;40.17;101501.55;109409;1254;69286;-54
2024/03/11 09:10:11;;;;;;;;;;;;;;;5.64;39.55;101498.98;109136;1251;74494;-56
2024/03/11 09:12:40;;;;;;;;;;;;;;;6.11;39.12;101498.92;109439;1251;60707;-55
2024/03/11 09:15:23;;;;;;;;;;;;;;;6.35;37.15;101505.42;109525;1251;59817;-56
2024/03/11 09:17:52;;;;;;;;;;;;;;;6.25;36.56;101507.48;109493;1251;77233;-55
2024/03/11 09:20:21;;;;;;;;;;;;;;;6.20;36.43;101506.96;109486;1251;65499;-55
2024/03/11 09:22:50;;;;;;;;;;;;;;;6.04;35.97;101504.52;109466;1251;74854;-56
2024/03/11 09:25:18;;;;;;;;;;;;;;;5.99;36.05;101503.29;109419;1251;62263;-60
2024/03/11 09:27:53;;;;;;;;;;;;;;;5.92;35.64;101504.17;109427;1251;60915;-55
2024/03/11 09:30:21;;;;;;;;;;;;;;;5.67;35.71;101509.33;109492;1250;75621;-55
2024/03/11 09:32:52;;;;;;;;;;;;;;;5.57;35.94;101515.55;109446;1251;67914;-55
2024/03/11 09:35:20;;;;;;;;;;;;;;;5.51;35.55;101519.88;109455;1251;73697;-55
2024/03/11 09:37:51;;;;;;;;;;;;;;;5.37;35.44;101521.96;109556;1254;61533;-56
2024/03/11 09:40:26;;;;;;;;;;;;;;;5.08;35.17;101521.80;109482;1251;62367;-55
2024/03/11 09:42:56;;;;;;;;;;;;;;;4.94;36.20;101518.54;109466;1251;76673;-59
2024/03/11 09:45:27;;;;;;;;;;;;;;;5.11;36.73;101519.11;109490;1251;68019;-55
2024/03/11 09:48:04;;;;;;;;;;;;;;;5.45;36.43;101525.80;109478;1251;74825;-55
2024/03/11 09:50:32;;;;;;;;;;;;;;;5.46;35.17;101526.73;109437;1251;60172;-59
2024/03/11 09:53:18;;;;;;;;;;;;;;;5.18;35.12;101525.95;109520;1250;61747;-55
2024/03/11 09:55:47;;;;;;;;;;;;;;;5.05;35.60;101522.99;109530;1251;76705;-55
2024/03/11 09:58:18;;;;;;;;;;;;;;;5.12;36.00;101519.57;109540;1251;70651;-59
2024/03/11 10:00:55;;;;;;;;;;;;;;;5.19;35.98;101520.55;109554;1251;74866;-55
2024/03/11 10:03:24;;;;;;;;;;;;;;;5.26;35.87;101521.42;109504;1251;61253;-55
2024/03/11 10:05:54;;;;;;;;;;;;;;;5.25;35.40;101525.48;109555;1251;61251;-56
2024/03/11 10:08:22;;;;;;;;;;;;;;;5.24;35.59;101528.32;109474;1254;77654;-55
2024/03/11 10:11:08;;;;;;;;;;;;;;;5.25;35.70;101528.25;109546;1252;67562;-55
2024/03/11 10:13:36;;;;;;;;;;;;;;;5.22;35.33;101518.33;109443;1251;74251;-56
2024/03/11 10:16:14;;;;;;;;;;;;;;;5.24;35.36;101513.33;109468;1251;59417;-56
2024/03/11 10:19:12;;;;;;;;;;;;;;;5.27;34.68;101517.20;109540;1250;61207;-54
2024/03/11 10:21:41;;;;;;;;;;;;;;;5.23;34.45;101513.53;109563;1250;76603;-56
2024/03/11 10:24:14;;;;;;;;;;;;;;;5.23;34.80;101521.49;109511;1251;69183;-54
2024/03/11 10:26:43;;;;;;;;;;;;;;;5.35;34.91;101522.26;109494;1251;73382;-54
2024/03/11 10:29:16;;;;;;;;;;;;;;;5.41;34.28;101525.77;109426;1251;60259;-55
2024/03/11 10:31:45;;;;;;;;;;;;;;;5.32;34.27;101521.81;109518;1251;60809;-55
2024/03/11 10:34:24;;;;;;;;;;;;;;;5.34;34.33;101516.14;109517;1251;77075;-56
2024/03/11 10:36:55;;;;;;;;;;;;;;;5.29;34.06;101518.57;109477;1251;70699;-59
2024/03/11 10:41:52;;;;;;;;;;;;;;;5.36;33.97;101509.42;109483;1253;59308;-54
2024/03/11 10:44:23;;;;;;;;;;;;;;;5.37;33.59;101506.63;109443;1251;60757;-54
2024/03/11 10:46:51;;;;;;;;;;;;;;;5.29;33.31;101509.14;109410;1254;76686;-58
2024/03/11 10:49:21;;;;;;;;;;;;;;;5.23;33.49;101504.27;109499;1251;68388;-54
2024/03/11 10:51:49;;;;;;;;;;;;;;;5.27;33.84;101501.02;109520;1251;74867;-56
2024/03/11 10:54:22;;;;;;;;;;;;;;;5.45;33.87;101498.05;109460;1251;60237;-54
2024/03/11 10:56:52;;;;;;;;;;;;;;;5.75;33.35;101500.71;109568;1251;59637;-55
2024/03/11 10:59:21;;;;;;;;;;;;;;;5.68;32.54;101504.52;109489;1251;76734;-54
2024/03/11 11:01:51;;;;;;;;;;;;;;;5.44;32.79;101504.17;109502;1251;68370;-55
2024/03/11 11:04:19;;;;;;;;;;;;;;;5.44;33.78;101505.04;109404;1251;73561;-54
2024/03/11 11:06:48;;;;;;;;;;;;;;;5.85;33.87;101505.61;109422;1251;61287;-55
2024/03/11 11:09:16;;;;;;;;;;;;;;;6.05;33.34;101501.95;109513;1250;61919;-54
2024/03/11 11:11:51;;;;;;;;;;;;;;;6.03;33.01;101498.67;109527;1250;75785;-54
2024/03/11 11:14:19;;;;;;;;;;;;;;;5.94;32.22;101501.13;109466;1254;69810;-53
2024/03/11 11:16:49;;;;;;;;;;;;;;;5.69;31.87;101508.09;109438;1251;75171;-53
2024/03/11 11:19:23;;;;;;;;;;;;;;;5.46;31.66;101510.56;109463;1251;59540;-54
2024/03/11 11:21:51;;;;;;;;;;;;;;;5.29;31.64;101517.20;109488;1251;60876;-54
2024/03/11 11:24:29;;;;;;;;;;;;;;;5.21;31.68;101517.53;109469;1251;75833;-58
2024/03/11 11:27:06;;;;;;;;;;;;;;;5.09;32.05;101516.81;109494;1251;68913;-54
2024/03/11 11:29:35;;;;;;;;;;;;;;;5.02;32.56;101515.09;109487;1251;73745;-55
2024/03/11 11:32:07;;;;;;;;;;;;;;;5.23;32.38;101514.92;109502;1251;60319;-57
2024/03/11 11:34:44;;;;;;;;;;;;;;;5.40;31.97;101520.16;109500;1251;62420;-54
2024/03/11 11:37:30;;;;;;;;;;;;;;;5.45;31.70;101518.23;109597;1250;76899;-54
2024/03/11 11:39:58;;;;;;;;;;;;;;;5.35;31.19;101520.54;109429;1251;69271;-55
2024/03/11 11:42:39;;;;;;;;;;;;;;;5.16;31.35;101520.33;109483;1251;74113;-55
2024/03/11 11:45:11;;;;;;;;;;;;;;;5.01;31.97;101519.02;109576;1250;62630;-54
2024/03/11 11:47:40;;;;;;;;;;;;;;;4.93;32.29;101516.87;109553;1251;60550;-57
2024/03/11 11:50:26;;;;;;;;;;;;;;;4.84;32.29;101518.55;109582;1250;76726;-54
2024/03/11 11:53:03;;;;;;;;;;;;;;;4.78;32.22;101528.83;109609;1250;69309;-53
2024/03/11 11:55:32;;;;;;;;;;;;;;;4.68;32.62;101526.47;109458;1251;74721;-56
2024/03/11 11:58:10;;;;;;;;;;;;;;;4.70;32.82;101530.66;109490;1251;61351;-54
2024/03/11 12:00:40;;;;;;;;;;;;;;;4.69;32.89;101525.73;109465;1251;60377;-54
2024/03/11 12:03:30;;;;;;;;;;;;;;;4.79;32.95;101531.83;109497;1251;76003;-55
2024/03/11 12:06:08;;;;;;;;;;;;;;;4.87;32.65;101536.23;109554;1251;69380;-54
2024/03/11 12:08:36;;;;;;;;;;;;;;;5.00;32.87;101536.80;109427;1251;73845;-54
2024/03/11 12:11:12;;;;;;;;;;;;;;;5.25;32.87;101532.85;109370;1251;61791;-54
2024/03/11 12:13:41;;;;;;;;;;;;;;;5.47;32.26;101533.27;109482;1251;62557;-55
2024/03/11 12:16:20;;;;;;;;;;;;;;;5.48;31.68;101531.81;109486;1251;76832;-56
2024/03/11 12:19:06;;;;;;;;;;;;;;;5.46;31.43;101530.38;109482;1251;70108;-60
2024/03/11 12:21:33;;;;;;;;;;;;;;;5.49;31.75;101526.68;109473;1251;73774;-53
2024/03/11 12:24:01;;;;;;;;;;;;;;;5.62;32.01;101526.77;109503;1251;61664;-55
2024/03/11 12:26:31;;;;;;;;;;;;;;;5.66;31.56;101527.69;109501;1250;60946;-59
2024/03/11 12:29:21;;;;;;;;;;;;;;;5.44;31.78;101531.95;109560;1250;76751;-54
2024/03/11 12:31:52;;;;;;;;;;;;;;;5.33;31.31;101535.70;109538;1251;68855;-54
2024/03/11 12:34:24;;;;;;;;;;;;;;;5.17;31.05;101530.69;109522;1251;75015;-53
2024/03/11 12:36:52;;;;;;;;;;;;;;;5.04;31.08;101529.10;109434;1251;60681;-54
2024/03/11 12:39:25;;;;;;;;;;;;;;;4.97;31.29;101533.80;109482;1251;61869;-54
2024/03/11 12:41:56;;;;;;;;;;;;;;;4.89;31.53;101535.77;109475;1251;78092;-55